Etusivu
METAR-TAF:

METAR-TAF

Lentoasemat :

Isedor Iverson Airport

McGregor, Minnesota, Yhdysvallat

Leveyspiiri: 46-37-07N, Pituuspiiri: 093-18-35W, korkeus merenpinnasta: 374 m

Tämänhetkinen sää

Tämä raportti tehtiin 9 minuuttia sitten, kello 13.15 UTC
Tuuli 5 kn lännestä/lounaasta
Lämpötila 9°C
Kosteus 87%
Ilmanpaine 1009 hPa
Näkyvyys: 16.1 km
Hajanaisia pilviä 1800 ft:n korkeudessa
Hajanaisia pilviä 6500 ft:n korkeudessa
Hajonneita pilviä 10000 ft:n korkeudessa

METAR: KHZX 291315Z AUTO 24005KT 10SM SCT018 SCT065 BKN100 09/07 A2979 RMK AO2

Aika: 08:24 (13:24 UTC)


TAF: puuttuu

Säähavainnot ja -ennusteet yli 4000 lentoasemalta (METAR- ja TAF-raportit).

Käytössä olevat sääasemat on merkitty karttaan keltaisilla ja punaisilla pisteillä.

Aseta hiiri pisteen päälle nähdäksesi sääaseman nimen.

Klikkaa sitten nähdäksesi säähavainnot ja -ennusteet.

Kartan vaihtaminen: klikkaa mustalla rastilla varustettuja vihreitä pisteitä, niin voit zoomata sisään; viivalla varustettua vihreää pistettä, niin voit zoomata ulos tai vihreitä nuolia, niin pääset viereisille kartoille.


METAR-TAF: